ESOW/VST METAR and TAF weather

Enter ICAO airport designator
Station Type Date Time Source
ESOW METAR 2021/06/24 05:20 UTC NOAA

ESOW 240520Z AUTO 01003KT 9999 FEW037/// OVC057/// 17/14 Q1018


Station Type Date Time Source
ESOW Decoded METAR 2021/06/24 05:20 UTC NOAA

Vasteras / Hasslo, Sweden (ESOW) 59-35N 016-38E 31M
Jun 24, 2021 - 01:20 AM EDT / 2021.06.24 0520 UTC
Wind: from the N (010 degrees) at 3 MPH (3 KT):0
Visibility: greater than 7 mile(s):0
Sky conditions: overcast
Temperature: 62 F (17 C)
Dew Point: 57 F (14 C)
Relative Humidity: 82%
Pressure (altimeter): 30.06 in. Hg (1018 hPa)
ob: ESOW 240520Z AUTO 01003KT 9999 FEW037/// OVC057/// 17/14 Q1018
cycle: 5

Station Type Date Time Source
ESOW TAF 2021/05/19 03:36 UTC NOAA

TAF TAF ESOW 190230Z 1903/1915 27005KT CAVOK

Example: see airport list